createdAt,value
2022-08-07T00:00:24.941Z,46.22
2022-08-07T00:02:53.575Z,46.06
2022-08-07T00:05:20.463Z,46.08
2022-08-07T00:07:47.449Z,46.06
2022-08-07T00:10:26.294Z,46.21
2022-08-07T00:13:00.485Z,46.23
2022-08-07T00:15:38.442Z,46.06
2022-08-07T00:18:18.695Z,46.07
2022-08-07T00:20:46.841Z,46.10
2022-08-07T00:23:14.276Z,46.14
2022-08-07T00:25:41.422Z,45.95
2022-08-07T00:28:10.779Z,46.26
2022-08-07T00:30:37.344Z,45.95
2022-08-07T00:33:03.910Z,46.09
2022-08-07T00:35:30.692Z,46.14
2022-08-07T00:37:57.849Z,46.24
2022-08-07T00:40:39.961Z,46.13
2022-08-07T00:43:10.761Z,46.01
2022-08-07T00:45:56.070Z,46.11
2022-08-07T00:48:25.052Z,45.98
2022-08-07T00:50:57.963Z,45.94
2022-08-07T00:53:24.584Z,46.04
2022-08-07T00:56:02.100Z,46.02
2022-08-07T00:58:31.825Z,46.16
2022-08-07T01:00:58.839Z,46.16
2022-08-07T01:03:55.675Z,46.08
2022-08-07T01:06:12.572Z,46.08
2022-08-07T01:08:43.058Z,46.07
2022-08-07T01:12:09.744Z,46.25
2022-08-07T01:14:07.039Z,45.97
2022-08-07T01:16:35.953Z,46.14
2022-08-07T01:19:03.616Z,45.95
2022-08-07T01:21:31.789Z,46.08
2022-08-07T01:24:03.852Z,45.91
2022-08-07T01:26:31.009Z,45.99
2022-08-07T01:28:57.771Z,45.99
2022-08-07T01:31:24.397Z,45.98
2022-08-07T01:33:55.553Z,46.03
2022-08-07T01:36:33.541Z,46.04
2022-08-07T01:39:09.644Z,45.90
2022-08-07T01:41:37.671Z,46.00
2022-08-07T01:44:05.350Z,45.73
2022-08-07T01:46:32.455Z,45.74
2022-08-07T01:48:59.828Z,46.03
2022-08-07T01:52:02.363Z,46.12
2022-08-07T01:54:32.658Z,45.99
2022-08-07T01:57:05.683Z,46.03
2022-08-07T01:59:43.802Z,46.16
2022-08-07T02:02:32.949Z,46.10
2022-08-07T02:05:08.725Z,46.06
2022-08-07T02:07:51.257Z,46.05
2022-08-07T02:10:24.657Z,46.11
2022-08-07T02:12:51.918Z,45.97
2022-08-07T02:15:22.008Z,46.07
2022-08-07T02:17:51.797Z,45.85
2022-08-07T02:20:23.742Z,45.95
2022-08-07T02:22:54.872Z,45.99
2022-08-07T02:26:10.564Z,45.96
2022-08-07T02:28:14.739Z,45.87
2022-08-07T02:30:52.649Z,45.97
2022-08-07T02:33:20.070Z,46.02
2022-08-07T02:36:28.807Z,45.91
2022-08-07T02:38:38.100Z,45.98
2022-08-07T02:41:07.940Z,45.98
2022-08-07T02:43:39.755Z,45.76
2022-08-07T02:46:08.446Z,45.77
2022-08-07T02:48:35.067Z,45.87
2022-08-07T02:51:06.879Z,45.75
2022-08-07T02:53:43.987Z,45.67
2022-08-07T02:56:21.779Z,45.64
2022-08-07T02:58:51.311Z,45.68
2022-08-07T03:01:36.068Z,45.60
2022-08-07T03:04:07.064Z,45.84
2022-08-07T03:06:36.406Z,45.54
2022-08-07T03:09:06.595Z,45.58
2022-08-07T03:11:38.910Z,45.65
2022-08-07T03:14:19.730Z,45.64
2022-08-07T03:16:49.171Z,45.61
2022-08-07T03:19:15.901Z,45.56
2022-08-07T03:21:50.312Z,45.52
2022-08-07T03:24:25.864Z,45.52
2022-08-07T03:26:59.618Z,45.50
2022-08-07T03:29:31.357Z,45.49
2022-08-07T03:32:01.427Z,45.47
2022-08-07T03:34:28.683Z,45.29
2022-08-07T03:36:57.438Z,45.45
2022-08-07T03:39:46.098Z,45.40
2022-08-07T03:42:15.111Z,45.51
2022-08-07T03:44:41.970Z,45.53
2022-08-07T03:47:13.029Z,45.27
2022-08-07T03:49:42.313Z,45.48
2022-08-07T03:52:22.576Z,45.33
2022-08-07T03:54:54.896Z,45.27
2022-08-07T03:58:32.402Z,45.46
2022-08-07T04:00:12.720Z,45.41
2022-08-07T04:02:41.479Z,45.30
2022-08-07T04:05:08.440Z,45.09
2022-08-07T04:07:42.821Z,45.24
2022-08-07T04:10:15.665Z,45.10
2022-08-07T04:12:48.606Z,44.93
2022-08-07T04:15:18.066Z,44.97
2022-08-07T04:18:58.353Z,45.09
2022-08-07T04:20:31.530Z,44.88
2022-08-07T04:23:06.640Z,45.02
2022-08-07T04:25:39.205Z,44.93
2022-08-07T04:28:08.614Z,44.80
2022-08-07T04:30:43.459Z,44.82
2022-08-07T04:33:13.883Z,44.78
2022-08-07T04:35:50.134Z,44.76
2022-08-07T04:38:18.563Z,44.65
2022-08-07T04:40:51.688Z,44.85
2022-08-07T04:44:09.582Z,44.67
2022-08-07T04:46:25.820Z,44.73
2022-08-07T04:49:02.700Z,44.75
2022-08-07T04:51:52.601Z,44.71
2022-08-07T04:54:30.288Z,44.81
2022-08-07T04:58:13.257Z,44.71
2022-08-07T05:00:12.874Z,44.48
2022-08-07T05:02:52.449Z,44.79
2022-08-07T05:05:54.074Z,44.82
2022-08-07T05:08:17.537Z,44.93
2022-08-07T05:11:12.080Z,44.81
2022-08-07T05:14:52.441Z,44.88
2022-08-07T05:16:44.103Z,44.84
2022-08-07T05:19:16.336Z,44.85
2022-08-07T05:22:00.713Z,44.81
2022-08-07T05:24:30.476Z,44.97
2022-08-07T05:27:18.425Z,44.90
2022-08-07T05:29:56.886Z,44.97
2022-08-07T05:32:25.632Z,44.98
2022-08-07T05:34:53.294Z,45.16
2022-08-07T05:37:25.312Z,45.17
2022-08-07T05:40:06.920Z,45.17
2022-08-07T05:42:39.455Z,45.43
2022-08-07T05:45:25.782Z,45.34
2022-08-07T05:48:01.689Z,45.47
2022-08-07T05:50:30.675Z,45.60
2022-08-07T05:52:57.486Z,45.64
2022-08-07T05:55:24.408Z,45.85
2022-08-07T05:58:12.285Z,45.90
2022-08-07T06:00:40.321Z,46.25
2022-08-07T06:03:09.570Z,46.28
2022-08-07T06:05:37.190Z,46.48
2022-08-07T06:08:29.165Z,46.47
2022-08-07T06:10:54.732Z,46.61
2022-08-07T06:14:10.856Z,46.78
2022-08-07T06:16:10.095Z,46.81
2022-08-07T06:18:43.104Z,46.84
2022-08-07T06:22:14.890Z,46.97
2022-08-07T06:24:45.414Z,47.16
2022-08-07T06:26:44.483Z,47.19
2022-08-07T06:29:11.049Z,47.39
2022-08-07T06:31:46.951Z,47.47
2022-08-07T06:34:19.844Z,47.47
2022-08-07T06:36:47.196Z,47.63
2022-08-07T06:40:13.002Z,47.82
2022-08-07T06:42:06.066Z,47.88
2022-08-07T06:44:36.507Z,47.98
2022-08-07T06:47:10.269Z,48.12
2022-08-07T06:49:51.689Z,48.29
2022-08-07T06:52:32.079Z,48.28
2022-08-07T06:55:33.521Z,48.48
2022-08-07T06:57:54.918Z,48.49
2022-08-07T07:00:23.727Z,48.74
2022-08-07T07:02:57.594Z,48.89
2022-08-07T07:06:02.600Z,48.99
2022-08-07T07:08:18.211Z,49.20
2022-08-07T07:10:56.991Z,49.31
2022-08-07T07:13:55.480Z,49.31
2022-08-07T07:16:19.564Z,49.59
2022-08-07T07:18:50.337Z,49.63
2022-08-07T07:21:26.936Z,49.54
2022-08-07T07:24:11.423Z,49.78
2022-08-07T07:26:40.791Z,49.74
2022-08-07T07:29:39.390Z,49.41
2022-08-07T07:32:09.355Z,49.71
2022-08-07T07:34:40.565Z,49.80
2022-08-07T07:37:21.864Z,49.78
2022-08-07T07:40:02.392Z,49.44
2022-08-07T07:42:33.070Z,49.76
2022-08-07T07:45:01.290Z,49.70
2022-08-07T07:47:28.995Z,49.59
2022-08-07T07:50:33.286Z,49.54
2022-08-07T07:52:47.173Z,49.57
2022-08-07T07:55:15.845Z,49.58
2022-08-07T07:57:51.560Z,49.39
2022-08-07T08:00:29.826Z,49.11
2022-08-07T08:03:05.605Z,49.03
2022-08-07T08:05:50.797Z,49.11
2022-08-07T08:08:35.015Z,48.78
2022-08-07T08:11:04.761Z,48.49
2022-08-07T08:13:36.607Z,48.51
2022-08-07T08:16:25.181Z,48.37
2022-08-07T08:18:54.578Z,48.40
2022-08-07T08:21:22.390Z,48.10
2022-08-07T08:24:36.637Z,47.96
2022-08-07T08:27:00.180Z,47.86
2022-08-07T08:29:31.563Z,47.78
2022-08-07T08:32:18.543Z,47.78
2022-08-07T08:34:48.684Z,47.66
2022-08-07T08:38:01.286Z,47.59
2022-08-07T08:40:16.186Z,47.40
2022-08-07T08:42:51.579Z,47.31
2022-08-07T08:45:22.531Z,46.71
2022-08-07T08:48:06.432Z,46.81
2022-08-07T08:50:40.786Z,46.65
2022-08-07T08:53:16.551Z,46.78
2022-08-07T08:55:54.559Z,46.42
2022-08-07T08:58:33.587Z,46.06
2022-08-07T09:01:15.163Z,46.02
2022-08-07T09:03:55.784Z,46.00
2022-08-07T09:06:35.601Z,45.78
2022-08-07T09:09:20.762Z,45.41
2022-08-07T09:12:30.532Z,45.33
2022-08-07T09:16:23.679Z,44.96
2022-08-07T09:18:11.510Z,44.83
2022-08-07T09:20:58.141Z,44.69
2022-08-07T09:24:32.925Z,44.73
2022-08-07T09:26:33.422Z,44.60
2022-08-07T09:29:24.467Z,44.33
2022-08-07T09:32:17.215Z,44.45
2022-08-07T09:34:54.567Z,44.38
2022-08-07T09:37:48.101Z,44.42
2022-08-07T09:40:28.463Z,44.15
2022-08-07T09:43:08.220Z,44.26
2022-08-07T09:47:25.881Z,44.04
2022-08-07T09:48:55.838Z,43.85
2022-08-07T09:52:16.586Z,43.60
2022-08-07T09:54:38.232Z,43.43
2022-08-07T09:57:23.558Z,43.58
2022-08-07T10:00:02.724Z,43.59
2022-08-07T10:02:55.128Z,43.01
2022-08-07T10:05:58.890Z,43.06
2022-08-07T10:08:44.269Z,42.86
2022-08-07T10:12:01.807Z,43.13
2022-08-07T10:14:23.152Z,42.99
2022-08-07T10:17:14.033Z,42.79
2022-08-07T10:20:00.242Z,42.88
2022-08-07T10:22:38.299Z,42.94
2022-08-07T10:25:21.009Z,42.69
2022-08-07T10:28:09.424Z,42.67
2022-08-07T10:30:51.686Z,42.83
2022-08-07T10:33:31.010Z,42.68
2022-08-07T10:36:36.330Z,42.42
2022-08-07T10:39:18.796Z,42.38
2022-08-07T10:42:01.702Z,42.46
2022-08-07T10:44:45.517Z,42.66
2022-08-07T10:47:26.879Z,42.10
2022-08-07T10:50:15.153Z,42.18
2022-08-07T10:52:55.145Z,41.89
2022-08-07T10:55:38.429Z,41.74
2022-08-07T10:58:17.617Z,41.83
2022-08-07T11:01:13.719Z,41.98
2022-08-07T11:03:54.893Z,41.84
2022-08-07T11:06:34.529Z,41.92
2022-08-07T11:09:11.042Z,41.62
2022-08-07T11:11:45.744Z,40.82
2022-08-07T11:14:57.260Z,41.25
2022-08-07T11:17:23.427Z,40.93
2022-08-07T11:20:11.017Z,41.03
2022-08-07T11:22:46.181Z,40.81
2022-08-07T11:25:20.658Z,40.98
2022-08-07T11:28:02.434Z,41.03
2022-08-07T11:30:41.897Z,40.95
2022-08-07T11:33:16.652Z,40.90
2022-08-07T11:35:59.660Z,40.94
2022-08-07T11:38:30.500Z,40.79
2022-08-07T11:41:07.795Z,40.76
2022-08-07T11:43:54.675Z,41.13
2022-08-07T11:46:38.596Z,41.00
2022-08-07T11:49:27.717Z,40.93
2022-08-07T11:52:29.311Z,40.92
2022-08-07T11:56:09.607Z,40.79
2022-08-07T11:58:13.166Z,40.76
2022-08-07T12:01:01.696Z,40.90
2022-08-07T12:03:48.319Z,40.53
2022-08-07T12:06:37.013Z,40.63
2022-08-07T12:09:16.597Z,40.56
2022-08-07T12:12:09.764Z,40.53
2022-08-07T12:14:55.743Z,40.34
2022-08-07T12:17:34.209Z,40.30
2022-08-07T12:20:14.046Z,40.34
2022-08-07T12:23:14.423Z,40.16
2022-08-07T12:26:06.040Z,40.06
2022-08-07T12:28:45.539Z,39.80
2022-08-07T12:31:26.971Z,39.97
2022-08-07T12:34:14.119Z,39.99
2022-08-07T12:36:42.726Z,39.74
2022-08-07T12:39:44.401Z,39.79
2022-08-07T12:42:07.237Z,39.94
2022-08-07T12:44:35.761Z,39.91
2022-08-07T12:47:12.866Z,39.77
2022-08-07T12:49:56.694Z,40.03
2022-08-07T12:52:47.171Z,39.71
2022-08-07T12:55:40.481Z,39.79
2022-08-07T12:58:09.752Z,39.79
2022-08-07T13:00:50.914Z,39.87
2022-08-07T13:04:02.086Z,39.85
2022-08-07T13:06:54.212Z,39.91
2022-08-07T13:10:28.718Z,39.83
2022-08-07T13:12:53.768Z,39.84
2022-08-07T13:15:29.665Z,40.00
2022-08-07T13:18:25.872Z,39.98
2022-08-07T13:21:00.814Z,40.09
2022-08-07T13:24:01.849Z,40.30
2022-08-07T13:26:29.804Z,40.11
2022-08-07T13:29:03.302Z,40.17
2022-08-07T13:31:54.941Z,40.20
2022-08-07T13:34:35.966Z,40.30
2022-08-07T13:37:10.526Z,40.44
2022-08-07T13:40:33.337Z,40.33
2022-08-07T13:42:39.719Z,40.58
2022-08-07T13:46:06.360Z,40.46
2022-08-07T13:48:06.585Z,40.51
2022-08-07T13:50:44.915Z,40.50
2022-08-07T13:53:35.984Z,40.67
2022-08-07T13:56:18.873Z,40.78
2022-08-07T13:58:56.465Z,40.67
2022-08-07T14:01:26.147Z,40.74
2022-08-07T14:04:07.487Z,40.88
2022-08-07T14:06:38.574Z,40.83
2022-08-07T14:09:08.726Z,40.87
2022-08-07T14:12:00.024Z,40.87
2022-08-07T14:14:30.484Z,40.91
2022-08-07T14:17:32.286Z,41.05
2022-08-07T14:20:42.587Z,40.89
2022-08-07T14:22:41.344Z,40.98
2022-08-07T14:25:15.282Z,40.86
2022-08-07T14:28:11.256Z,41.00
2022-08-07T14:30:33.682Z,40.82
2022-08-07T14:35:55.669Z,40.78
2022-08-07T14:38:31.056Z,40.98
2022-08-07T14:41:03.913Z,41.09
2022-08-07T14:43:58.617Z,41.23
2022-08-07T14:46:31.226Z,41.20
2022-08-07T14:49:00.110Z,41.23
2022-08-07T14:52:03.641Z,41.45
2022-08-07T14:54:42.131Z,41.56
2022-08-07T14:57:14.965Z,41.63
2022-08-07T15:00:05.262Z,41.75
2022-08-07T15:02:34.555Z,41.70
2022-08-07T15:05:03.286Z,41.79
2022-08-07T15:10:19.629Z,41.96
2022-08-07T15:15:39.893Z,42.02
2022-08-07T15:18:28.438Z,42.12
2022-08-07T15:21:08.021Z,42.18
2022-08-07T15:25:15.571Z,42.18
2022-08-07T15:26:36.533Z,42.20
2022-08-07T15:32:00.886Z,42.46
2022-08-07T15:34:34.784Z,42.50
2022-08-07T15:39:57.944Z,42.39
2022-08-07T15:45:56.804Z,42.49
2022-08-07T15:48:27.068Z,42.47
2022-08-07T15:51:10.076Z,42.32
2022-08-07T15:53:52.028Z,42.57
2022-08-07T15:56:24.090Z,42.35
2022-08-07T15:58:53.362Z,42.49
2022-08-07T16:01:38.844Z,42.55
2022-08-07T16:04:14.824Z,42.18
2022-08-07T16:06:48.064Z,42.22
2022-08-07T16:09:22.734Z,42.25
2022-08-07T16:12:03.257Z,42.21
2022-08-07T16:14:45.951Z,42.11
2022-08-07T16:18:02.701Z,42.13
2022-08-07T16:20:38.376Z,42.13
2022-08-07T16:23:52.987Z,41.94
2022-08-07T16:26:14.424Z,41.93
2022-08-07T16:30:06.767Z,41.75
2022-08-07T16:31:57.702Z,41.68
2022-08-07T16:34:38.174Z,41.70
2022-08-07T16:38:06.694Z,41.52
2022-08-07T16:40:33.719Z,41.65
2022-08-07T16:43:13.545Z,41.58
2022-08-07T16:46:40.659Z,41.68
2022-08-07T16:50:20.024Z,41.52
2022-08-07T16:52:50.926Z,41.28
2022-08-07T16:54:59.341Z,41.22
2022-08-07T16:58:00.903Z,41.15
2022-08-07T17:00:39.862Z,40.82
2022-08-07T17:03:17.739Z,40.66
2022-08-07T17:06:20.103Z,40.53
2022-08-07T17:12:04.303Z,39.90
2022-08-07T17:14:41.735Z,39.87
2022-08-07T17:17:22.346Z,39.74
2022-08-07T17:20:01.895Z,39.61
2022-08-07T17:22:37.770Z,39.71
2022-08-07T17:25:15.219Z,39.64
2022-08-07T17:27:58.245Z,39.13
2022-08-07T17:30:29.379Z,39.00
2022-08-07T17:34:09.397Z,38.77
2022-08-07T17:35:59.197Z,38.58
2022-08-07T17:38:35.029Z,38.64
2022-08-07T17:42:00.637Z,38.38
2022-08-07T17:44:02.670Z,38.23
2022-08-07T17:46:40.185Z,38.50
2022-08-07T17:49:13.939Z,38.18
2022-08-07T17:52:01.275Z,38.22
2022-08-07T17:54:53.278Z,38.07
2022-08-07T17:57:56.379Z,38.02
2022-08-07T18:00:33.136Z,37.92
2022-08-07T18:03:10.303Z,37.86
2022-08-07T18:06:01.471Z,37.75
2022-08-07T18:08:32.439Z,37.60
2022-08-07T18:12:17.774Z,37.60
2022-08-07T18:14:01.523Z,37.52
2022-08-07T18:16:36.052Z,37.71
2022-08-07T18:21:02.432Z,37.66
2022-08-07T18:22:27.349Z,37.79
2022-08-07T18:24:58.164Z,37.72
2022-08-07T18:27:39.150Z,37.77
2022-08-07T18:30:32.282Z,37.70
2022-08-07T18:33:26.243Z,37.75
2022-08-07T18:36:10.260Z,37.88
2022-08-07T18:38:57.834Z,38.17
2022-08-07T18:41:46.038Z,38.26
2022-08-07T18:44:28.778Z,38.27
2022-08-07T18:47:05.188Z,38.25
2022-08-07T18:50:30.761Z,38.36
2022-08-07T18:52:54.345Z,38.48
2022-08-07T18:55:42.501Z,38.80
2022-08-07T18:58:25.402Z,38.93
2022-08-07T19:01:03.284Z,39.08
2022-08-07T19:03:42.749Z,39.11
2022-08-07T19:06:16.191Z,39.34
2022-08-07T19:08:56.128Z,39.38
2022-08-07T19:11:37.866Z,39.45
2022-08-07T19:14:17.300Z,39.65
2022-08-07T19:17:06.466Z,39.77
2022-08-07T19:19:53.426Z,40.25
2022-08-07T19:22:30.729Z,40.44
2022-08-07T19:24:58.946Z,40.72
2022-08-07T19:28:57.547Z,40.74
2022-08-07T19:31:02.236Z,40.80
2022-08-07T19:33:15.527Z,41.04
2022-08-07T19:35:51.263Z,40.91
2022-08-07T19:38:20.405Z,41.17
2022-08-07T19:40:51.531Z,41.28
2022-08-07T19:43:21.639Z,41.35
2022-08-07T19:46:10.507Z,41.33
2022-08-07T19:48:43.064Z,41.46
2022-08-07T19:51:20.522Z,41.55
2022-08-07T19:54:34.861Z,41.61
2022-08-07T19:58:00.142Z,41.75
2022-08-07T19:59:42.132Z,41.83
2022-08-07T20:02:19.222Z,41.99
2022-08-07T20:04:50.103Z,41.91
2022-08-07T20:07:46.381Z,42.11
2022-08-07T20:10:36.757Z,42.32
2022-08-07T20:13:06.008Z,42.28
2022-08-07T20:15:37.210Z,42.43
2022-08-07T20:18:06.810Z,42.30
2022-08-07T20:20:45.421Z,42.37
2022-08-07T20:23:41.869Z,42.35
2022-08-07T20:26:04.618Z,42.68
2022-08-07T20:28:39.668Z,42.50
2022-08-07T20:31:20.885Z,42.58
2022-08-07T20:33:51.299Z,42.52
2022-08-07T20:36:26.936Z,42.71
2022-08-07T20:39:00.868Z,42.78
2022-08-07T20:41:48.482Z,42.77
2022-08-07T20:44:16.087Z,42.91
2022-08-07T20:46:45.692Z,43.17
2022-08-07T20:49:58.424Z,42.93
2022-08-07T20:52:01.561Z,43.01
2022-08-07T20:54:34.544Z,43.07
2022-08-07T20:57:06.010Z,43.10
2022-08-07T21:00:06.669Z,43.16
2022-08-07T21:02:27.881Z,43.28
2022-08-07T21:04:55.039Z,43.29
2022-08-07T21:07:26.946Z,43.49
2022-08-07T21:09:59.173Z,43.47
2022-08-07T21:12:31.042Z,43.57
2022-08-07T21:15:04.920Z,43.73
2022-08-07T21:18:20.782Z,43.85
2022-08-07T21:20:29.743Z,43.74
2022-08-07T21:22:58.932Z,43.93
2022-08-07T21:25:56.215Z,44.09
2022-08-07T21:28:48.175Z,44.13
2022-08-07T21:31:50.115Z,44.21
2022-08-07T21:34:26.789Z,44.28
2022-08-07T21:37:03.555Z,44.47
2022-08-07T21:39:46.707Z,44.40
2022-08-07T21:42:42.449Z,44.55
2022-08-07T21:46:09.386Z,44.42
2022-08-07T21:48:28.706Z,44.48
2022-08-07T21:51:07.755Z,44.71
2022-08-07T21:53:53.226Z,44.61
2022-08-07T21:56:39.622Z,44.59
2022-08-07T21:59:22.831Z,44.52
2022-08-07T22:02:10.849Z,44.98
2022-08-07T22:04:53.506Z,44.72
2022-08-07T22:07:31.736Z,44.63
2022-08-07T22:10:12.683Z,44.71
2022-08-07T22:12:45.719Z,45.00
2022-08-07T22:16:42.361Z,44.85
2022-08-07T22:18:10.699Z,45.05
2022-08-07T22:20:43.079Z,44.95
2022-08-07T22:23:18.380Z,45.01
2022-08-07T22:25:59.168Z,45.03
2022-08-07T22:28:33.296Z,45.12
2022-08-07T22:31:11.551Z,45.17
2022-08-07T22:34:04.858Z,45.32
2022-08-07T22:36:40.777Z,45.35
2022-08-07T22:39:23.447Z,45.57
2022-08-07T22:42:03.992Z,45.83
2022-08-07T22:44:58.771Z,45.81
2022-08-07T22:47:42.920Z,45.85
2022-08-07T22:50:29.112Z,45.59
2022-08-07T22:53:18.726Z,45.95
2022-08-07T22:56:08.709Z,46.02
2022-08-07T22:59:02.260Z,46.23
2022-08-07T23:01:51.103Z,46.23
2022-08-07T23:04:45.247Z,46.50
2022-08-07T23:07:41.497Z,46.50
2022-08-07T23:10:38.066Z,46.78
2022-08-07T23:13:29.568Z,46.83
2022-08-07T23:16:44.661Z,47.15
2022-08-07T23:19:14.658Z,47.25
2022-08-07T23:21:51.399Z,47.48
2022-08-07T23:24:33.103Z,47.64
2022-08-07T23:27:15.975Z,47.33
2022-08-07T23:30:37.395Z,47.35
2022-08-07T23:34:36.712Z,47.34
2022-08-07T23:36:02.213Z,47.50
2022-08-07T23:38:42.705Z,47.42
2022-08-07T23:41:24.347Z,47.52
2022-08-07T23:44:16.572Z,47.66
2022-08-07T23:47:03.862Z,47.58
2022-08-07T23:49:50.445Z,47.80
2022-08-07T23:53:08.846Z,47.68
2022-08-07T23:55:53.073Z,47.61
2022-08-07T23:58:18.564Z,47.81
